Time;durP1;ratioP1;P1;durP2;ratioP2;P2;SDS_P1;SDS_P2;PMS_P1;PMS_P2;Temp;Humidity;BMP_temperature;BMP_pressure;BME280_temperature;BME280_humidity;BME280_pressure;Samples;Min_cycle;Max_cycle;Signal;HPM_P1;HPM_P2
2021/04/25 00:02:04;;;;;;;11.98;3.28;;;2.70;82.20;;;;;;5000877;28;20439;-66
2021/04/25 00:04:29;;;;;;;13.20;3.40;;;2.60;82.20;;;;;;5000651;28;20026;-66
2021/04/25 00:06:55;;;;;;;6.68;3.10;;;2.50;82.20;;;;;;4999986;28;20085;-66
2021/04/25 00:09:21;;;;;;;8.02;2.83;;;2.40;82.70;;;;;;5000162;28;21001;-66
2021/04/25 00:11:47;;;;;;;7.30;3.10;;;2.60;82.70;;;;;;4999374;28;20312;-66
2021/04/25 00:14:13;;;;;;;12.40;2.70;;;2.50;82.40;;;;;;5000322;28;20022;-66
2021/04/25 00:16:39;;;;;;;8.52;2.83;;;2.50;82.90;;;;;;5000854;28;20399;-66
2021/04/25 00:19:05;;;;;;;10.98;2.90;;;2.50;82.50;;;;;;5003673;28;20136;-66
2021/04/25 00:21:31;;;;;;;9.10;2.80;;;2.40;82.80;;;;;;5002202;28;20034;-66
2021/04/25 00:23:58;;;;;;;8.68;3.03;;;2.40;82.60;;;;;;5002247;28;20530;-66
2021/04/25 00:26:24;;;;;;;8.77;2.65;;;2.30;82.80;;;;;;4999401;28;20451;-66
2021/04/25 00:28:50;;;;;;;8.57;2.70;;;2.30;83.10;;;;;;5004124;28;20033;-66
2021/04/25 00:31:16;;;;;;;9.55;2.83;;;2.30;83.10;;;;;;5004203;28;20033;-66
2021/04/25 00:33:42;;;;;;;6.53;2.83;;;2.40;82.90;;;;;;5002751;28;20053;-66
2021/04/25 00:36:07;;;;;;;4.38;2.50;;;2.30;83.10;;;;;;5004206;28;20131;-66
2021/04/25 00:38:33;;;;;;;7.53;3.08;;;2.30;83.00;;;;;;4999486;28;20053;-66
2021/04/25 00:40:59;;;;;;;6.28;2.67;;;2.30;82.90;;;;;;5004653;28;20038;-66
2021/04/25 00:43:24;;;;;;;8.18;2.92;;;2.20;83.00;;;;;;4998301;28;20030;-66
2021/04/25 00:45:50;;;;;;;8.88;2.72;;;2.20;83.10;;;;;;5005532;28;20109;-66
2021/04/25 00:48:15;;;;;;;9.25;3.10;;;2.30;82.90;;;;;;5002282;28;20048;-66
2021/04/25 00:50:41;;;;;;;9.68;2.83;;;2.20;83.30;;;;;;5005376;28;20225;-66
2021/04/25 00:53:08;;;;;;;13.73;3.30;;;2.10;83.30;;;;;;4997124;28;20022;-67
2021/04/25 00:55:34;;;;;;;8.77;2.53;;;2.10;83.30;;;;;;4998632;28;20124;-66
2021/04/25 00:58:02;;;;;;;8.13;2.28;;;2.10;83.20;;;;;;5004602;28;20390;-66
2021/04/25 01:00:28;;;;;;;9.82;2.97;;;2.00;83.50;;;;;;5002156;28;20040;-66
2021/04/25 01:02:54;;;;;;;11.50;3.20;;;2.10;83.30;;;;;;5003040;28;20030;-66
2021/04/25 01:05:21;;;;;;;11.23;3.08;;;2.10;83.40;;;;;;4999731;28;20060;-66
2021/04/25 01:07:47;;;;;;;11.20;2.78;;;2.00;83.50;;;;;;5002045;28;20391;-66
2021/04/25 01:10:13;;;;;;;9.82;3.60;;;2.00;83.40;;;;;;5003746;28;20022;-66
2021/04/25 01:12:40;;;;;;;10.70;3.50;;;1.90;83.60;;;;;;5006889;28;20025;-66
2021/04/25 01:15:08;;;;;;;11.05;3.30;;;1.90;83.70;;;;;;5003701;28;20025;-66
2021/04/25 01:17:37;;;;;;;10.80;2.90;;;1.90;83.90;;;;;;5004425;28;20679;-66
2021/04/25 01:20:03;;;;;;;9.30;2.85;;;2.00;83.70;;;;;;5000648;28;20029;-66
2021/04/25 01:22:29;;;;;;;8.40;2.78;;;2.00;83.80;;;;;;5008024;28;20339;-66
2021/04/25 01:24:55;;;;;;;6.32;2.42;;;1.90;83.60;;;;;;5000461;28;20064;-66
2021/04/25 01:27:20;;;;;;;8.45;2.92;;;1.80;83.60;;;;;;5010821;28;20410;-66
2021/04/25 01:29:46;;;;;;;10.23;2.70;;;1.90;83.60;;;;;;4999765;28;20026;-66
2021/04/25 01:32:12;;;;;;;8.40;3.05;;;1.90;83.80;;;;;;5010177;28;20029;-66
2021/04/25 01:34:39;;;;;;;7.60;2.58;;;1.80;83.40;;;;;;5003154;28;20037;-66
2021/04/25 01:37:04;;;;;;;11.35;3.00;;;1.80;83.50;;;;;;5012374;28;20452;-66
2021/04/25 01:39:30;;;;;;;9.40;2.78;;;1.80;83.40;;;;;;4999487;28;20054;-66
2021/04/25 01:41:56;;;;;;;11.23;2.67;;;1.80;83.40;;;;;;5017408;28;20059;-66
2021/04/25 01:44:22;;;;;;;11.38;2.75;;;1.80;83.40;;;;;;4998076;28;20068;-66
2021/04/25 01:46:48;;;;;;;12.18;2.88;;;1.80;83.30;;;;;;5013795;28;20038;-66
2021/04/25 01:49:15;;;;;;;7.80;2.38;;;1.80;83.40;;;;;;4996699;28;20026;-69
2021/04/25 01:51:42;;;;;;;14.70;3.40;;;1.80;83.30;;;;;;5001706;28;20061;-66
2021/04/25 01:54:07;;;;;;;6.10;2.60;;;1.70;83.20;;;;;;5003611;28;20017;-66
2021/04/25 01:56:33;;;;;;;8.23;2.40;;;1.60;83.40;;;;;;5002325;28;20049;-66
2021/04/25 01:58:59;;;;;;;14.93;2.67;;;1.60;83.80;;;;;;5002785;28;20112;-68
2021/04/25 02:01:26;;;;;;;7.93;2.97;;;1.60;83.80;;;;;;5015141;28;20037;-66
2021/04/25 02:03:52;;;;;;;11.95;2.50;;;1.50;84.00;;;;;;4991437;28;20064;-66
2021/04/25 02:06:18;;;;;;;9.25;2.80;;;1.50;84.20;;;;;;5009111;28;20030;-66
2021/04/25 02:08:43;;;;;;;9.55;2.60;;;1.50;84.30;;;;;;5004730;28;20616;-66
2021/04/25 02:11:09;;;;;;;8.30;2.90;;;1.50;84.10;;;;;;5011241;28;20382;-66
2021/04/25 02:13:35;;;;;;;10.20;2.65;;;1.50;84.30;;;;;;5009069;28;20079;-66
2021/04/25 02:16:01;;;;;;;11.35;2.65;;;1.40;84.10;;;;;;5009387;28;20025;-66
2021/04/25 02:18:26;;;;;;;9.23;3.20;;;1.40;84.30;;;;;;5002655;28;20484;-66
2021/04/25 02:20:52;;;;;;;9.80;3.53;;;1.40;84.30;;;;;;4997956;28;20138;-66
2021/04/25 02:23:17;;;;;;;7.15;3.00;;;1.30;84.70;;;;;;5001526;28;20033;-66
2021/04/25 02:25:43;;;;;;;5.32;2.72;;;1.20;84.50;;;;;;5012428;28;20609;-66
2021/04/25 02:28:09;;;;;;;7.30;2.90;;;1.10;84.90;;;;;;5005715;28;20068;-66
2021/04/25 02:30:36;;;;;;;10.35;3.20;;;1.10;85.40;;;;;;5010802;28;20021;-66
2021/04/25 02:33:02;;;;;;;11.32;3.30;;;1.20;85.20;;;;;;4993816;28;20026;-66
2021/04/25 02:35:29;;;;;;;9.93;3.38;;;1.20;85.10;;;;;;5010253;28;20041;-66
2021/04/25 02:37:58;;;;;;;9.18;3.05;;;1.30;85.10;;;;;;4998067;28;20034;-66
2021/04/25 02:40:28;;;;;;;8.75;3.35;;;1.30;85.10;;;;;;5000948;28;20034;-66
2021/04/25 02:42:55;;;;;;;8.43;3.38;;;1.30;85.20;;;;;;5004336;28;20105;-66
2021/04/25 02:45:23;;;;;;;9.52;3.63;;;1.30;85.20;;;;;;5016330;28;20056;-66
2021/04/25 02:47:51;;;;;;;9.63;3.72;;;1.40;85.30;;;;;;5022892;28;20037;-66
2021/04/25 02:50:20;;;;;;;13.73;3.55;;;1.50;85.20;;;;;;5013416;28;20423;-66
2021/04/25 02:52:47;;;;;;;7.53;3.60;;;1.50;85.10;;;;;;4989847;28;20037;-66
2021/04/25 02:55:13;;;;;;;9.32;3.88;;;1.60;85.00;;;;;;5010057;28;20058;-66
2021/04/25 02:57:39;;;;;;;13.80;4.15;;;1.60;85.00;;;;;;4998568;28;20037;-66
2021/04/25 03:00:11;;;;;;;9.02;3.42;;;1.70;85.10;;;;;;5012032;28;20065;-66
2021/04/25 03:02:37;;;;;;;14.60;3.88;;;1.70;84.80;;;;;;5000836;28;20026;-66
2021/04/25 03:05:04;;;;;;;8.13;3.22;;;1.80;84.60;;;;;;5013049;28;20051;-66
2021/04/25 03:07:30;;;;;;;9.45;3.25;;;1.90;84.70;;;;;;5006114;28;20432;-66
2021/04/25 03:09:55;;;;;;;8.32;3.33;;;1.90;84.70;;;;;;5002100;28;20114;-66
2021/04/25 03:12:21;;;;;;;16.58;3.78;;;2.00;84.20;;;;;;5007446;28;20038;-66
2021/04/25 03:14:46;;;;;;;17.05;3.45;;;2.00;84.30;;;;;;5011731;28;20033;-66
2021/04/25 03:17:12;;;;;;;9.18;3.22;;;2.10;84.30;;;;;;4991600;28;20026;-66
2021/04/25 03:19:38;;;;;;;9.23;3.25;;;2.30;83.50;;;;;;4995473;28;20350;-66
2021/04/25 03:22:03;;;;;;;11.18;3.08;;;2.40;82.30;;;;;;4993644;28;20113;-66
2021/04/25 03:24:29;;;;;;;12.95;2.95;;;2.60;81.60;;;;;;4995056;28;20391;-66
2021/04/25 03:26:54;;;;;;;9.82;2.92;;;2.60;81.20;;;;;;5002962;28;20040;-66
2021/04/25 03:29:20;;;;;;;10.18;2.75;;;2.40;82.10;;;;;;4999240;28;20037;-66
2021/04/25 03:31:46;;;;;;;8.70;3.22;;;2.40;82.20;;;;;;5006707;28;20022;-66
2021/04/25 03:34:12;;;;;;;10.50;2.97;;;2.40;82.50;;;;;;5002305;28;20049;-66
2021/04/25 03:36:37;;;;;;;14.73;3.15;;;2.30;83.70;;;;;;5002202;28;20030;-66
2021/04/25 03:39:05;;;;;;;9.27;3.20;;;2.20;84.00;;;;;;4989900;28;20034;-66
2021/04/25 03:41:32;;;;;;;7.45;3.08;;;2.10;84.10;;;;;;5004055;28;20041;-66
2021/04/25 03:43:57;;;;;;;8.32;3.35;;;2.10;84.60;;;;;;5003745;28;20104;-66
2021/04/25 03:46:23;;;;;;;13.45;3.45;;;2.00;84.60;;;;;;5008654;28;20591;-66
2021/04/25 03:48:49;;;;;;;12.32;3.03;;;2.10;84.40;;;;;;5000402;28;20036;-66
2021/04/25 03:51:15;;;;;;;10.25;3.22;;;2.10;84.10;;;;;;5001581;28;20025;-66
2021/04/25 03:53:40;;;;;;;7.57;3.15;;;2.10;83.90;;;;;;5003576;28;20023;-66
2021/04/25 03:56:06;;;;;;;11.52;3.75;;;2.10;83.80;;;;;;4997927;28;20033;-66
2021/04/25 03:58:32;;;;;;;7.07;2.75;;;2.10;83.40;;;;;;5000445;28;20048;-66
2021/04/25 04:00:57;;;;;;;8.95;3.15;;;2.10;83.50;;;;;;5001155;28;20430;-66
2021/04/25 04:03:23;;;;;;;11.65;3.22;;;2.10;83.40;;;;;;4991544;28;20022;-66
2021/04/25 04:05:49;;;;;;;9.48;3.22;;;2.20;83.70;;;;;;5000933;28;20105;-66
2021/04/25 04:08:14;;;;;;;9.52;2.95;;;2.10;83.40;;;;;;4995134;28;20491;-66
2021/04/25 04:10:40;;;;;;;6.53;2.70;;;2.10;83.50;;;;;;4995009;28;20454;-66
2021/04/25 04:13:06;;;;;;;6.30;2.72;;;2.10;83.60;;;;;;5019170;28;20097;-66
2021/04/25 04:15:32;;;;;;;6.60;2.78;;;2.00;83.70;;;;;;5003158;28;20053;-66
2021/04/25 04:17:58;;;;;;;10.07;2.90;;;2.00;83.70;;;;;;4995668;28;20100;-66
2021/04/25 04:20:23;;;;;;;10.88;3.15;;;2.00;83.80;;;;;;5000348;28;20026;-66
2021/04/25 04:22:49;;;;;;;12.15;3.05;;;1.90;83.50;;;;;;5009260;28;20426;-60
2021/04/25 04:25:15;;;;;;;8.52;3.60;;;1.90;83.80;;;;;;5003510;28;20483;-60
2021/04/25 04:27:41;;;;;;;12.15;3.10;;;1.90;83.90;;;;;;4998884;28;20026;-59
2021/04/25 04:30:08;;;;;;;9.18;2.78;;;2.00;84.20;;;;;;5003613;28;20104;-59
2021/04/25 04:32:34;;;;;;;12.88;3.47;;;1.90;84.20;;;;;;4997813;28;20106;-59
2021/04/25 04:35:00;;;;;;;5.20;2.58;;;1.90;84.20;;;;;;4994441;28;20454;-59
2021/04/25 04:37:26;;;;;;;6.28;3.13;;;1.90;84.20;;;;;;5005616;28;20018;-60
2021/04/25 04:39:51;;;;;;;7.57;3.40;;;1.90;84.40;;;;;;5004988;28;20568;-60
2021/04/25 04:42:17;;;;;;;9.30;3.20;;;1.90;84.40;;;;;;5005754;28;20025;-60
2021/04/25 04:44:43;;;;;;;9.55;3.28;;;1.90;84.20;;;;;;4993368;28;20046;-60
2021/04/25 04:47:09;;;;;;;12.93;3.45;;;1.90;84.40;;;;;;5005561;28;20028;-60
2021/04/25 04:49:35;;;;;;;8.00;3.13;;;1.90;84.40;;;;;;5006658;28;20026;-60
2021/04/25 04:52:01;;;;;;;9.10;3.17;;;1.90;84.50;;;;;;5009553;28;20235;-59
2021/04/25 04:54:26;;;;;;;8.07;3.08;;;1.90;84.40;;;;;;5003072;28;20276;-60
2021/04/25 04:56:52;;;;;;;9.85;3.50;;;2.00;84.30;;;;;;5013319;28;20468;-60
2021/04/25 04:59:18;;;;;;;10.60;3.25;;;2.10;84.40;;;;;;5002964;28;20510;-60
2021/04/25 05:01:43;;;;;;;14.35;2.78;;;2.20;83.90;;;;;;5004350;28;20109;-60
2021/04/25 05:04:09;;;;;;;7.95;2.75;;;2.30;83.70;;;;;;4993116;28;20097;-60
2021/04/25 05:06:35;;;;;;;8.63;2.75;;;2.40;83.30;;;;;;5007961;28;20042;-60
2021/04/25 05:09:00;;;;;;;6.20;2.90;;;2.40;83.10;;;;;;5002485;28;20030;-60
2021/04/25 05:11:26;;;;;;;7.30;2.70;;;2.50;83.00;;;;;;5007467;28;20116;-60
2021/04/25 05:13:52;;;;;;;13.40;3.22;;;2.50;83.00;;;;;;4997235;28;20104;-60
2021/04/25 05:16:17;;;;;;;9.25;2.85;;;2.60;82.50;;;;;;4990737;28;20060;-60
2021/04/25 05:18:43;;;;;;;11.60;2.05;;;2.70;82.30;;;;;;4992194;28;20065;-60
2021/04/25 05:21:09;;;;;;;9.63;3.00;;;2.80;81.70;;;;;;5012941;28;20021;-60
2021/04/25 05:23:34;;;;;;;7.00;2.70;;;2.80;81.60;;;;;;5019464;28;20264;-60
2021/04/25 05:26:00;;;;;;;8.43;2.45;;;2.90;81.50;;;;;;4992811;28;20029;-60
2021/04/25 05:28:26;;;;;;;7.90;2.13;;;2.90;81.30;;;;;;4995532;28;20061;-60
2021/04/25 05:30:51;;;;;;;8.50;2.55;;;3.10;81.00;;;;;;4998074;28;20356;-63
2021/04/25 05:33:17;;;;;;;11.73;2.65;;;3.10;80.80;;;;;;4989140;28;20038;-63
2021/04/25 05:35:42;;;;;;;7.13;2.20;;;3.20;80.70;;;;;;5010806;28;20597;-63
2021/04/25 05:38:08;;;;;;;7.53;2.20;;;3.30;80.70;;;;;;5007569;28;20029;-63
2021/04/25 05:40:34;;;;;;;9.40;2.30;;;3.30;80.10;;;;;;5007947;28;20025;-63
2021/04/25 05:42:59;;;;;;;5.97;1.98;;;3.40;79.60;;;;;;4998796;28;20225;-63
2021/04/25 05:45:25;;;;;;;5.32;1.67;;;3.50;79.30;;;;;;4990808;28;20089;-63
2021/04/25 05:47:56;;;;;;;6.35;2.00;;;3.60;79.20;;;;;;4992483;28;21970;-63
2021/04/25 05:50:24;;;;;;;5.43;1.50;;;3.80;79.00;;;;;;4993714;28;20117;-63
2021/04/25 05:52:50;;;;;;;6.78;2.08;;;3.90;78.30;;;;;;5001255;28;20024;-63
2021/04/25 05:55:17;;;;;;;8.63;2.20;;;3.90;78.20;;;;;;5006722;28;20417;-63
2021/04/25 05:57:43;;;;;;;7.38;1.85;;;4.00;78.40;;;;;;5001142;28;20084;-63
2021/04/25 06:00:12;;;;;;;5.80;2.15;;;4.20;77.60;;;;;;5000570;28;20030;-63
2021/04/25 06:02:37;;;;;;;4.22;1.77;;;4.20;76.90;;;;;;5005602;28;20030;-63
2021/04/25 06:05:04;;;;;;;8.95;2.05;;;4.30;76.90;;;;;;4994938;28;20032;-63
2021/04/25 06:07:30;;;;;;;3.78;1.65;;;4.30;77.00;;;;;;4994650;28;20085;-61
2021/04/25 06:09:55;;;;;;;5.50;1.77;;;4.30;76.60;;;;;;5029321;28;20033;-62
2021/04/25 06:12:21;;;;;;;6.40;1.88;;;4.40;76.20;;;;;;5006913;28;20117;-62
2021/04/25 06:14:46;;;;;;;9.18;2.13;;;4.60;76.40;;;;;;4997237;28;20030;-62
2021/04/25 06:17:12;;;;;;;7.85;1.95;;;4.60;76.30;;;;;;5009044;28;20018;-62
2021/04/25 06:19:38;;;;;;;4.97;1.55;;;4.80;75.90;;;;;;4997189;28;20029;-62
2021/04/25 06:22:04;;;;;;;5.28;2.03;;;4.90;75.40;;;;;;5004369;28;20462;-62
2021/04/25 06:24:30;;;;;;;9.98;2.33;;;5.00;75.40;;;;;;4998580;28;20037;-62
2021/04/25 06:26:56;;;;;;;7.45;1.95;;;5.10;75.10;;;;;;5011595;28;20494;-62
2021/04/25 06:29:21;;;;;;;6.15;1.58;;;5.20;74.90;;;;;;5004814;28;20030;-63
2021/04/25 06:31:47;;;;;;;3.55;1.60;;;5.30;73.90;;;;;;5011976;28;20067;-63
2021/04/25 06:34:13;;;;;;;9.48;2.15;;;5.30;73.10;;;;;;5008783;28;20109;-62
2021/04/25 06:36:41;;;;;;;4.78;1.70;;;5.30;73.00;;;;;;4998070;28;20037;-63
2021/04/25 06:39:07;;;;;;;8.68;1.90;;;5.50;72.90;;;;;;4998824;28;20033;-63
2021/04/25 06:41:33;;;;;;;5.28;1.90;;;6.00;73.00;;;;;;4998308;28;20030;-63
2021/04/25 06:43:59;;;;;;;7.30;2.10;;;5.90;72.10;;;;;;4997033;28;20084;-63
2021/04/25 06:46:26;;;;;;;6.32;1.80;;;5.90;72.20;;;;;;5012161;28;20030;-63
2021/04/25 06:48:55;;;;;;;4.13;1.90;;;6.20;72.20;;;;;;5007852;28;20045;-63
2021/04/25 06:51:20;;;;;;;8.18;2.40;;;6.30;71.10;;;;;;5010027;28;20037;-61
2021/04/25 06:53:46;;;;;;;4.55;1.63;;;6.50;72.10;;;;;;5020915;28;20087;-61
2021/04/25 06:56:11;;;;;;;4.13;1.75;;;6.50;70.70;;;;;;5009721;28;20092;-61
2021/04/25 06:58:37;;;;;;;3.50;1.70;;;6.70;69.90;;;;;;5014374;28;20029;-61
2021/04/25 07:01:03;;;;;;;9.18;2.08;;;6.90;69.60;;;;;;5011896;28;20025;-61
2021/04/25 07:03:29;;;;;;;6.65;1.65;;;6.90;67.90;;;;;;5018018;28;20026;-61
2021/04/25 07:05:54;;;;;;;5.18;1.98;;;7.20;68.10;;;;;;5009287;28;20034;-61
2021/04/25 07:08:23;;;;;;;5.65;1.80;;;7.40;67.70;;;;;;5007033;28;20380;-61
2021/04/25 07:10:50;;;;;;;7.40;1.98;;;7.30;65.50;;;;;;5010816;28;20467;-61
2021/04/25 07:13:16;;;;;;;3.22;1.60;;;7.60;66.00;;;;;;5017101;28;20113;-63
2021/04/25 07:15:41;;;;;;;3.40;1.40;;;8.00;64.20;;;;;;5012892;28;20108;-63
2021/04/25 07:18:07;;;;;;;6.13;1.52;;;7.90;62.10;;;;;;5007853;28;20518;-63
2021/04/25 07:20:32;;;;;;;7.20;1.73;;;7.70;63.00;;;;;;5013801;28;20038;-63
2021/04/25 07:22:58;;;;;;;7.13;1.60;;;7.80;61.50;;;;;;5021766;28;20032;-62
2021/04/25 07:25:23;;;;;;;2.20;1.10;;;7.60;60.80;;;;;;5016420;28;20033;-62
2021/04/25 07:27:49;;;;;;;4.63;1.10;;;8.00;60.30;;;;;;5017104;28;20376;-62
2021/04/25 07:30:16;;;;;;;6.10;1.50;;;8.10;58.30;;;;;;5020622;28;20057;-62
2021/04/25 07:32:42;;;;;;;7.85;1.30;;;8.20;58.20;;;;;;5015825;28;20137;-62
2021/04/25 07:35:08;;;;;;;6.82;1.50;;;8.60;57.10;;;;;;5014748;28;20051;-62
2021/04/25 07:37:34;;;;;;;3.35;1.15;;;8.60;56.50;;;;;;5021520;28;20025;-62
2021/04/25 07:40:00;;;;;;;2.65;1.40;;;9.00;57.30;;;;;;5010246;28;20394;-61
2021/04/25 07:42:26;;;;;;;5.15;1.38;;;9.10;55.80;;;;;;5019644;28;20031;-61
2021/04/25 07:44:51;;;;;;;2.92;1.25;;;9.50;53.70;;;;;;5010957;28;20027;-61
2021/04/25 07:47:17;;;;;;;4.32;1.10;;;9.90;52.90;;;;;;5017466;28;20116;-61
2021/04/25 07:49:43;;;;;;;4.47;1.27;;;10.50;52.40;;;;;;5009881;28;20153;-63
2021/04/25 07:52:08;;;;;;;1.95;0.98;;;10.40;53.10;;;;;;5009943;28;20049;-63
2021/04/25 07:54:34;;;;;;;5.18;1.10;;;10.20;49.60;;;;;;5015651;28;20030;-63
2021/04/25 07:57:00;;;;;;;5.68;1.15;;;10.20;51.60;;;;;;5010834;28;20022;-63
2021/04/25 07:59:26;;;;;;;5.78;1.35;;;10.70;50.50;;;;;;5009212;28;20466;-62
2021/04/25 08:01:52;;;;;;;6.32;1.25;;;10.40;49.20;;;;;;5011655;28;20104;-62
2021/04/25 08:04:17;;;;;;;2.67;1.27;;;10.30;49.70;;;;;;5018139;28;20159;-62
2021/04/25 08:06:43;;;;;;;3.67;1.15;;;9.90;48.90;;;;;;5023811;28;20034;-62
2021/04/25 08:09:10;;;;;;;3.38;1.20;;;10.60;48.30;;;;;;5009251;28;20441;-62
2021/04/25 08:11:35;;;;;;;5.53;1.10;;;10.50;50.20;;;;;;5016764;28;20030;-62
2021/04/25 08:14:02;;;;;;;5.25;1.05;;;10.90;48.30;;;;;;5006114;28;20022;-62
2021/04/25 08:16:28;;;;;;;2.60;1.13;;;10.90;47.10;;;;;;5019069;28;20021;-62
2021/04/25 08:18:54;;;;;;;4.28;0.98;;;11.00;44.20;;;;;;5013858;28;20498;-62
2021/04/25 08:21:20;;;;;;;2.88;1.00;;;10.40;44.40;;;;;;5012202;28;20069;-62
2021/04/25 08:23:45;;;;;;;4.78;1.00;;;10.90;43.50;;;;;;5021342;28;20040;-62
2021/04/25 08:26:11;;;;;;;3.85;0.80;;;11.10;44.30;;;;;;5023618;28;20559;-62
2021/04/25 08:28:37;;;;;;;1.33;0.70;;;11.20;38.60;;;;;;5010133;28;20071;-62
2021/04/25 08:31:02;;;;;;;3.50;0.90;;;11.70;38.20;;;;;;5009739;28;20026;-63
2021/04/25 08:33:28;;;;;;;1.73;0.80;;;11.60;39.40;;;;;;5016527;28;20025;-63
2021/04/25 08:35:53;;;;;;;3.03;0.98;;;11.90;38.50;;;;;;5024246;28;20029;-62
2021/04/25 08:38:20;;;;;;;1.90;0.60;;;11.60;37.50;;;;;;5021570;28;20196;-63
2021/04/25 08:40:46;;;;;;;5.95;0.82;;;11.60;37.60;;;;;;5022401;28;20252;-63
2021/04/25 08:43:14;;;;;;;1.73;0.60;;;12.20;38.10;;;;;;5016066;28;20503;-63
2021/04/25 08:45:42;;;;;;;2.67;0.88;;;12.60;37.50;;;;;;5018587;28;20038;-63
2021/04/25 08:48:11;;;;;;;2.15;0.85;;;12.80;38.30;;;;;;5011567;28;20491;-63
2021/04/25 08:50:37;;;;;;;1.75;0.70;;;12.70;36.10;;;;;;5028210;28;20105;-63
2021/04/25 08:53:03;;;;;;;4.35;0.65;;;12.40;34.10;;;;;;5014131;28;20026;-63
2021/04/25 08:55:29;;;;;;;1.55;0.80;;;12.10;35.40;;;;;;5007483;28;20044;-64
2021/04/25 08:57:55;;;;;;;2.42;0.90;;;11.70;36.20;;;;;;5020684;28;20491;-63
2021/04/25 09:00:21;;;;;;;3.40;1.00;;;11.50;35.10;;;;;;5019403;28;20040;-63
2021/04/25 09:02:50;;;;;;;1.60;0.70;;;11.20;37.80;;;;;;5019218;28;20026;-63
2021/04/25 09:05:16;;;;;;;0.75;0.60;;;10.50;38.30;;;;;;5017992;28;20034;-62
2021/04/25 09:07:56;;;;;;;1.80;0.90;;;10.70;36.70;;;;;;5021283;28;20517;-62
2021/04/25 09:10:32;;;;;;;0.85;0.70;;;10.40;38.80;;;;;;5018820;28;20456;-62
2021/04/25 09:12:58;;;;;;;2.80;0.52;;;10.30;39.80;;;;;;5016284;28;20132;-62
2021/04/25 09:15:28;;;;;;;3.25;1.08;;;11.00;37.80;;;;;;5012203;28;20056;-62
2021/04/25 09:17:56;;;;;;;2.83;1.00;;;11.50;38.00;;;;;;5009616;28;20026;-63
2021/04/25 09:20:51;;;;;;;1.90;0.65;;;12.20;36.00;;;;;;5019125;28;20030;-63
2021/04/25 09:23:22;;;;;;;2.83;0.98;;;12.50;36.20;;;;;;5005032;28;20045;-63
2021/04/25 09:25:54;;;;;;;;;;;13.10;34.70;;;;;;5019387;28;20040;-62
2021/04/25 09:28:20;;;;;;;3.42;0.90;;;13.80;34.60;;;;;;5014063;28;20350;-63
2021/04/25 09:30:59;;;;;;;2.42;0.90;;;14.20;34.40;;;;;;5024251;28;20021;-62
2021/04/25 09:33:27;;;;;;;3.00;0.80;;;14.00;33.70;;;;;;5019812;28;20510;-63
2021/04/25 09:35:56;;;;;;;2.53;0.80;;;14.10;32.50;;;;;;5021594;28;20032;-63
2021/04/25 09:38:22;;;;;;;1.33;0.70;;;14.00;32.50;;;;;;5006977;28;20037;-62
2021/04/25 09:40:49;;;;;;;1.90;0.57;;;13.70;32.50;;;;;;5010825;28;20105;-62
2021/04/25 09:43:20;;;;;;;2.38;0.85;;;14.10;32.00;;;;;;5011046;28;20137;-63
2021/04/25 09:45:45;;;;;;;1.95;0.60;;;14.30;33.00;;;;;;5013723;28;20298;-63
2021/04/25 09:48:20;;;;;;;1.83;0.80;;;13.70;31.10;;;;;;5023611;28;20045;-62
2021/04/25 09:50:46;;;;;;;1.02;0.50;;;13.60;32.40;;;;;;5014694;28;20022;-62
2021/04/25 09:53:18;;;;;;;1.25;0.50;;;14.60;31.50;;;;;;5017907;28;20025;-63
2021/04/25 09:55:55;;;;;;;1.55;0.60;;;15.00;30.90;;;;;;5018140;28;20026;-63
2021/04/25 09:58:21;;;;;;;3.28;0.68;;;15.10;31.20;;;;;;5022227;28;20052;-63
2021/04/25 10:00:51;;;;;;;3.70;0.70;;;15.10;29.10;;;;;;5015116;28;20461;-63
2021/04/25 10:03:22;;;;;;;1.35;0.88;;;15.00;29.90;;;;;;5013274;28;20413;-63
2021/04/25 10:05:58;;;;;;;0.73;0.40;;;14.90;29.80;;;;;;5027919;28;20037;-63
2021/04/25 10:08:34;;;;;;;3.63;0.95;;;15.40;28.60;;;;;;5017633;28;20044;-63
2021/04/25 10:11:02;;;;;;;1.50;0.70;;;14.60;29.50;;;;;;5006919;28;20022;-63
2021/04/25 10:13:29;;;;;;;4.10;0.73;;;13.50;31.50;;;;;;5009911;28;20115;-63
2021/04/25 10:15:55;;;;;;;2.03;0.80;;;13.00;33.20;;;;;;5020606;28;20026;-63
2021/04/25 10:18:21;;;;;;;1.90;0.77;;;12.80;32.20;;;;;;5013466;28;20025;-62
2021/04/25 10:20:54;;;;;;;1.80;0.63;;;12.10;33.10;;;;;;5026242;28;20039;-63
2021/04/25 10:23:20;;;;;;;1.77;0.77;;;11.80;34.00;;;;;;5024405;28;20032;-63
2021/04/25 10:25:47;;;;;;;2.00;0.57;;;12.20;33.80;;;;;;5023867;28;20038;-63
2021/04/25 10:28:42;;;;;;;2.47;0.43;;;11.90;33.00;;;;;;5019339;28;20087;-63
2021/04/25 10:31:11;;;;;;;1.13;0.47;;;11.60;34.50;;;;;;5026777;28;20029;-63
2021/04/25 10:33:54;;;;;;;3.22;0.60;;;11.60;34.80;;;;;;5020121;28;20183;-62
2021/04/25 10:36:21;;;;;;;2.38;0.43;;;12.60;34.40;;;;;;5022038;28;20637;-62
2021/04/25 10:38:47;;;;;;;1.20;0.50;;;12.10;32.70;;;;;;5007845;28;20099;-63
2021/04/25 10:41:18;;;;;;;4.97;0.70;;;13.00;33.30;;;;;;5014251;28;20398;-63
2021/04/25 10:43:56;;;;;;;1.70;0.70;;;13.50;32.20;;;;;;5024481;28;20033;-63
2021/04/25 10:46:21;;;;;;;2.15;0.60;;;13.80;32.60;;;;;;5009064;28;20038;-63
2021/04/25 10:48:49;;;;;;;1.70;0.70;;;14.10;30.30;;;;;;5007575;28;20053;-63
2021/04/25 10:51:15;;;;;;;2.20;0.57;;;14.50;29.50;;;;;;5012063;28;20506;-63
2021/04/25 10:53:47;;;;;;;0.80;0.60;;;14.70;28.50;;;;;;5007679;28;20064;-63
2021/04/25 10:56:21;;;;;;;;;;;14.80;30.20;;;;;;5023989;28;20167;-63
2021/04/25 10:58:48;;;;;;;2.45;0.80;;;14.30;29.40;;;;;;5021822;28;19908;-63
2021/04/25 11:01:39;;;;;;;3.65;0.63;;;13.10;30.30;;;;;;5026219;28;20107;-63
2021/04/25 11:04:08;;;;;;;3.13;0.68;;;13.20;30.70;;;;;;5021248;28;20080;-63
2021/04/25 11:06:34;;;;;;;2.05;0.77;;;12.50;33.60;;;;;;5017787;28;20112;-63
2021/04/25 11:09:01;;;;;;;1.48;0.75;;;13.10;33.00;;;;;;5011647;28;20125;-63
2021/04/25 11:11:29;;;;;;;1.42;0.60;;;14.30;30.70;;;;;;5019581;28;20476;-63
2021/04/25 11:13:55;;;;;;;3.30;0.57;;;14.80;30.70;;;;;;5017710;28;20041;-63
2021/04/25 11:16:26;;;;;;;1.10;0.70;;;15.50;28.60;;;;;;5014093;28;20026;-63
2021/04/25 11:19:03;;;;;;;0.57;0.38;;;15.80;29.30;;;;;;5007532;28;20036;-63
2021/04/25 11:21:39;;;;;;;0.52;0.40;;;15.50;26.20;;;;;;5025027;28;20029;-63
2021/04/25 11:24:08;;;;;;;1.02;0.50;;;15.30;27.00;;;;;;5018278;28;20025;-63
2021/04/25 11:26:40;;;;;;;2.47;0.75;;;15.80;28.70;;;;;;5022291;28;20033;-64
2021/04/25 11:29:10;;;;;;;2.55;0.90;;;16.10;26.60;;;;;;5018967;28;20225;-63
2021/04/25 11:34:25;;;;;;;2.85;0.80;;;14.20;28.90;;;;;;5019428;28;20041;-63
2021/04/25 11:36:51;;;;;;;1.98;0.88;;;13.50;29.20;;;;;;5008465;28;20478;-64
2021/04/25 11:39:18;;;;;;;2.25;0.82;;;12.60;31.50;;;;;;5012742;28;20037;-63
2021/04/25 11:41:45;;;;;;;1.52;0.80;;;12.70;32.70;;;;;;5021995;28;20045;-64
2021/04/25 11:44:11;;;;;;;0.47;0.47;;;14.00;31.10;;;;;;5015655;28;20070;-63
2021/04/25 11:46:37;;;;;;;2.08;0.70;;;14.60;28.90;;;;;;5007903;28;20458;-63
2021/04/25 11:49:04;;;;;;;3.47;0.85;;;15.80;27.60;;;;;;5014541;28;20113;-64
2021/04/25 11:51:31;;;;;;;1.27;0.90;;;15.70;28.40;;;;;;5014725;28;20037;-64
2021/04/25 11:53:58;;;;;;;1.92;0.80;;;14.50;30.80;;;;;;5015459;28;20032;-64
2021/04/25 11:56:31;;;;;;;1.92;0.60;;;14.10;29.20;;;;;;5032865;28;20036;-64
2021/04/25 11:59:10;;;;;;;1.25;0.60;;;14.00;30.50;;;;;;5013040;28;20034;-63
2021/04/25 12:01:37;;;;;;;3.88;0.70;;;13.60;29.60;;;;;;5004242;28;20902;-63
2021/04/25 12:04:04;;;;;;;1.42;0.70;;;14.30;28.00;;;;;;5001763;28;20636;-62
2021/04/25 12:06:49;;;;;;;1.02;0.63;;;14.90;28.30;;;;;;5016185;28;20124;-63
2021/04/25 12:09:16;;;;;;;1.55;0.75;;;14.90;25.30;;;;;;5017351;28;20033;-62
2021/04/25 12:11:43;;;;;;;0.95;0.50;;;15.50;26.50;;;;;;5010229;28;20835;-63
2021/04/25 12:14:21;;;;;;;2.50;0.57;;;15.90;27.00;;;;;;5018163;28;20033;-61
2021/04/25 12:16:47;;;;;;;1.45;0.60;;;16.00;28.10;;;;;;5014343;28;20025;-61
2021/04/25 12:19:26;;;;;;;2.58;0.90;;;15.40;27.60;;;;;;5013945;28;20524;-62
2021/04/25 12:21:57;;;;;;;2.00;0.57;;;14.60;27.30;;;;;;5010490;28;20040;-60
2021/04/25 12:24:23;;;;;;;0.80;0.60;;;16.00;27.60;;;;;;5018817;28;20161;-62
2021/04/25 12:26:49;;;;;;;2.80;0.88;;;15.70;25.30;;;;;;5014681;28;20680;-61
2021/04/25 12:29:31;;;;;;;2.22;0.65;;;17.20;26.30;;;;;;5018336;28;20696;-61
2021/04/25 12:31:57;;;;;;;1.52;0.70;;;16.70;25.40;;;;;;5017134;28;20499;-61
2021/04/25 12:34:22;;;;;;;2.55;0.47;;;15.80;25.60;;;;;;5015455;28;20108;-61
2021/04/25 12:36:52;;;;;;;1.02;0.32;;;16.90;28.30;;;;;;5023958;28;20108;-62
2021/04/25 12:39:18;;;;;;;1.63;0.70;;;17.90;23.50;;;;;;5021287;28;20037;-61
2021/04/25 12:41:47;;;;;;;1.55;0.45;;;17.50;23.40;;;;;;5019180;28;20091;-62
2021/04/25 12:44:14;;;;;;;1.95;0.50;;;17.50;21.30;;;;;;5018409;28;20026;-62
2021/04/25 12:46:39;;;;;;;0.55;0.50;;;16.70;22.50;;;;;;5013010;28;20025;-62
2021/04/25 12:49:09;;;;;;;3.40;0.60;;;17.20;23.80;;;;;;5019747;28;20410;-62
2021/04/25 12:51:41;;;;;;;2.47;0.60;;;17.00;22.50;;;;;;5019159;28;20021;-62
2021/04/25 12:54:13;;;;;;;1.77;0.60;;;16.70;24.00;;;;;;5016303;28;20784;-62
2021/04/25 12:56:43;;;;;;;3.05;0.80;;;16.10;23.00;;;;;;5013503;28;20658;-62